sensor_id;sensor_type;location;lat;lon;timestamp;pressure;altitude;pressure_sealevel;temperature
66473;BMP280;70264;48.802;9.224;2023-08-30T00:00:57;98416.00;;;15.20
66473;BMP280;70264;48.802;9.224;2023-08-30T00:03:27;98424.88;;;15.24
66473;BMP280;70264;48.802;9.224;2023-08-30T00:05:53;98420.53;;;15.25
66473;BMP280;70264;48.802;9.224;2023-08-30T00:08:23;98427.81;;;15.28
66473;BMP280;70264;48.802;9.224;2023-08-30T00:10:50;98414.59;;;15.24
66473;BMP280;70264;48.802;9.224;2023-08-30T00:13:20;98415.19;;;15.20
66473;BMP280;70264;48.802;9.224;2023-08-30T00:15:48;98405.47;;;15.22
66473;BMP280;70264;48.802;9.224;2023-08-30T00:18:13;98404.28;;;15.24
66473;BMP280;70264;48.802;9.224;2023-08-30T00:20:44;98412.63;;;15.20
66473;BMP280;70264;48.802;9.224;2023-08-30T00:23:13;98408.41;;;15.25
66473;BMP280;70264;48.802;9.224;2023-08-30T00:25:41;98404.47;;;15.23
66473;BMP280;70264;48.802;9.224;2023-08-30T00:28:07;98407.22;;;15.28
66473;BMP280;70264;48.802;9.224;2023-08-30T00:30:32;98400.47;;;15.27
66473;BMP280;70264;48.802;9.224;2023-08-30T00:32:57;98399.34;;;15.23
66473;BMP280;70264;48.802;9.224;2023-08-30T00:35:23;98396.63;;;15.18
66473;BMP280;70264;48.802;9.224;2023-08-30T00:37:48;98394.59;;;15.20
66473;BMP280;70264;48.802;9.224;2023-08-30T00:40:18;98393.41;;;15.22
66473;BMP280;70264;48.802;9.224;2023-08-30T00:42:47;98390.16;;;15.27
66473;BMP280;70264;48.802;9.224;2023-08-30T00:45:17;98385.88;;;15.21
66473;BMP280;70264;48.802;9.224;2023-08-30T00:47:44;98384.88;;;15.22
66473;BMP280;70264;48.802;9.224;2023-08-30T00:50:10;98379.78;;;15.15
66473;BMP280;70264;48.802;9.224;2023-08-30T00:52:36;98372.06;;;15.15
66473;BMP280;70264;48.802;9.224;2023-08-30T00:55:04;98375.63;;;15.14
66473;BMP280;70264;48.802;9.224;2023-08-30T00:57:32;98374.44;;;15.17
66473;BMP280;70264;48.802;9.224;2023-08-30T00:59:57;98370.50;;;15.14
66473;BMP280;70264;48.802;9.224;2023-08-30T01:02:25;98368.56;;;15.09
66473;BMP280;70264;48.802;9.224;2023-08-30T01:04:51;98369.50;;;15.15
66473;BMP280;70264;48.802;9.224;2023-08-30T01:07:16;98365.94;;;15.16
66473;BMP280;70264;48.802;9.224;2023-08-30T01:09:42;98366.56;;;15.11
66473;BMP280;70264;48.802;9.224;2023-08-30T01:12:11;98370.28;;;15.15
66473;BMP280;70264;48.802;9.224;2023-08-30T01:14:45;98360.19;;;15.14
66473;BMP280;70264;48.802;9.224;2023-08-30T01:17:13;98353.84;;;14.98
66473;BMP280;70264;48.802;9.224;2023-08-30T01:22:17;98358.94;;;15.05
66473;BMP280;70264;48.802;9.224;2023-08-30T01:27:24;98359.78;;;14.99
66473;BMP280;70264;48.802;9.224;2023-08-30T01:29:51;98354.06;;;14.97
66473;BMP280;70264;48.802;9.224;2023-08-30T01:32:19;98351.97;;;14.87
66473;BMP280;70264;48.802;9.224;2023-08-30T01:34:45;98352.97;;;14.86
66473;BMP280;70264;48.802;9.224;2023-08-30T01:37:18;98359.44;;;14.77
66473;BMP280;70264;48.802;9.224;2023-08-30T01:39:44;98348.22;;;14.72
66473;BMP280;70264;48.802;9.224;2023-08-30T01:42:10;98359.13;;;14.67
66473;BMP280;70264;48.802;9.224;2023-08-30T01:44:40;98362.28;;;14.69
66473;BMP280;70264;48.802;9.224;2023-08-30T01:47:10;98358.69;;;14.70
66473;BMP280;70264;48.802;9.224;2023-08-30T01:49:36;98361.78;;;14.60
66473;BMP280;70264;48.802;9.224;2023-08-30T01:52:05;98362.19;;;14.57
66473;BMP280;70264;48.802;9.224;2023-08-30T01:54:33;98370.72;;;14.58
66473;BMP280;70264;48.802;9.224;2023-08-30T01:56:59;98363.56;;;14.60
66473;BMP280;70264;48.802;9.224;2023-08-30T01:59:25;98368.13;;;14.58
66473;BMP280;70264;48.802;9.224;2023-08-30T02:01:55;98368.91;;;14.58
66473;BMP280;70264;48.802;9.224;2023-08-30T02:04:22;98365.69;;;14.63
66473;BMP280;70264;48.802;9.224;2023-08-30T02:07:02;98365.84;;;14.68
66473;BMP280;70264;48.802;9.224;2023-08-30T02:09:31;98373.28;;;14.58
66473;BMP280;70264;48.802;9.224;2023-08-30T02:12:00;98376.34;;;14.48
66473;BMP280;70264;48.802;9.224;2023-08-30T02:14:28;98375.69;;;14.53
66473;BMP280;70264;48.802;9.224;2023-08-30T02:16:54;98381.09;;;14.45
66473;BMP280;70264;48.802;9.224;2023-08-30T02:19:24;98381.09;;;14.45
66473;BMP280;70264;48.802;9.224;2023-08-30T02:21:50;98374.19;;;14.63
66473;BMP280;70264;48.802;9.224;2023-08-30T02:24:15;98366.16;;;14.60
66473;BMP280;70264;48.802;9.224;2023-08-30T02:26:43;98369.91;;;14.57
66473;BMP280;70264;48.802;9.224;2023-08-30T02:29:11;98370.50;;;14.59
66473;BMP280;70264;48.802;9.224;2023-08-30T02:31:38;98374.28;;;14.57
66473;BMP280;70264;48.802;9.224;2023-08-30T02:34:04;98366.69;;;14.62
66473;BMP280;70264;48.802;9.224;2023-08-30T02:36:29;98374.41;;;14.62
66473;BMP280;70264;48.802;9.224;2023-08-30T02:38:54;98367.47;;;14.62
66473;BMP280;70264;48.802;9.224;2023-08-30T02:41:22;98366.69;;;14.62
66473;BMP280;70264;48.802;9.224;2023-08-30T02:43:47;98372.91;;;14.54
66473;BMP280;70264;48.802;9.224;2023-08-30T02:46:12;98376.50;;;14.53
66473;BMP280;70264;48.802;9.224;2023-08-30T02:48:40;98378.75;;;14.43
66473;BMP280;70264;48.802;9.224;2023-08-30T02:51:07;98383.47;;;14.46
66473;BMP280;70264;48.802;9.224;2023-08-30T02:53:32;98365.31;;;14.41
66473;BMP280;70264;48.802;9.224;2023-08-30T02:56:02;98379.16;;;14.40
66473;BMP280;70264;48.802;9.224;2023-08-30T02:58:28;98373.28;;;14.33
66473;BMP280;70264;48.802;9.224;2023-08-30T03:00:55;98377.81;;;14.38
66473;BMP280;70264;48.802;9.224;2023-08-30T03:03:21;98377.03;;;14.37
66473;BMP280;70264;48.802;9.224;2023-08-30T03:05:50;98371.63;;;14.39
66473;BMP280;70264;48.802;9.224;2023-08-30T03:08:15;98371.50;;;14.34
66473;BMP280;70264;48.802;9.224;2023-08-30T03:10:43;98364.97;;;14.38
66473;BMP280;70264;48.802;9.224;2023-08-30T03:13:11;98366.78;;;14.31
66473;BMP280;70264;48.802;9.224;2023-08-30T03:15:37;98367.00;;;14.29
66473;BMP280;70264;48.802;9.224;2023-08-30T03:18:02;98368.53;;;14.37
66473;BMP280;70264;48.802;9.224;2023-08-30T03:20:27;98361.50;;;14.44
66473;BMP280;70264;48.802;9.224;2023-08-30T03:22:56;98359.72;;;14.44
66473;BMP280;70264;48.802;9.224;2023-08-30T03:25:22;98356.94;;;14.46
66473;BMP280;70264;48.802;9.224;2023-08-30T03:27:47;98350.38;;;14.50
66473;BMP280;70264;48.802;9.224;2023-08-30T03:30:13;98354.91;;;14.54
66473;BMP280;70264;48.802;9.224;2023-08-30T03:32:40;98351.56;;;14.54
66473;BMP280;70264;48.802;9.224;2023-08-30T03:35:06;98351.72;;;14.59
66473;BMP280;70264;48.802;9.224;2023-08-30T03:37:31;98350.47;;;14.61
66473;BMP280;70264;48.802;9.224;2023-08-30T03:39:57;98342.69;;;14.68
66473;BMP280;70264;48.802;9.224;2023-08-30T03:42:22;98349.41;;;14.69
66473;BMP280;70264;48.802;9.224;2023-08-30T03:44:47;98352.13;;;14.74
66473;BMP280;70264;48.802;9.224;2023-08-30T03:47:15;98352.72;;;14.76
66473;BMP280;70264;48.802;9.224;2023-08-30T03:49:43;98347.38;;;14.78
66473;BMP280;70264;48.802;9.224;2023-08-30T03:52:09;98347.50;;;14.83
66473;BMP280;70264;48.802;9.224;2023-08-30T03:54:34;98345.72;;;14.83
66473;BMP280;70264;48.802;9.224;2023-08-30T03:56:59;98342.78;;;14.80
66473;BMP280;70264;48.802;9.224;2023-08-30T03:59:25;98349.09;;;14.84
66473;BMP280;70264;48.802;9.224;2023-08-30T04:01:52;98361.03;;;14.78
66473;BMP280;70264;48.802;9.224;2023-08-30T04:04:17;98350.88;;;14.83
66473;BMP280;70264;48.802;9.224;2023-08-30T04:06:43;98358.59;;;14.83
66473;BMP280;70264;48.802;9.224;2023-08-30T04:09:08;98368.59;;;14.73
66473;BMP280;70264;48.802;9.224;2023-08-30T04:11:36;98360.59;;;14.81
66473;BMP280;70264;48.802;9.224;2023-08-30T04:14:03;98363.34;;;14.80
66473;BMP280;70264;48.802;9.224;2023-08-30T04:16:29;98360.59;;;14.81
66473;BMP280;70264;48.802;9.224;2023-08-30T04:18:57;98364.16;;;14.80
66473;BMP280;70264;48.802;9.224;2023-08-30T04:21:22;98359.84;;;14.74
66473;BMP280;70264;48.802;9.224;2023-08-30T04:23:48;98357.41;;;14.79
66473;BMP280;70264;48.802;9.224;2023-08-30T04:26:13;98352.28;;;14.79
66473;BMP280;70264;48.802;9.224;2023-08-30T04:28:40;98355.09;;;14.78
66473;BMP280;70264;48.802;9.224;2023-08-30T04:31:06;98358.91;;;14.68
66473;BMP280;70264;48.802;9.224;2023-08-30T04:33:31;98361.81;;;14.79
66473;BMP280;70264;48.802;9.224;2023-08-30T04:35:57;98362.66;;;14.73
66473;BMP280;70264;48.802;9.224;2023-08-30T04:38:25;98362.16;;;14.82
66473;BMP280;70264;48.802;9.224;2023-08-30T04:40:58;98356.94;;;14.89
66473;BMP280;70264;48.802;9.224;2023-08-30T04:43:27;98361.50;;;14.87
66473;BMP280;70264;48.802;9.224;2023-08-30T04:45:53;98364.84;;;14.87
66473;BMP280;70264;48.802;9.224;2023-08-30T04:48:24;98368.16;;;14.94
66473;BMP280;70264;48.802;9.224;2023-08-30T04:50:59;98362.06;;;14.89
66473;BMP280;70264;48.802;9.224;2023-08-30T04:53:24;98364.66;;;14.89
66473;BMP280;70264;48.802;9.224;2023-08-30T04:55:49;98356.81;;;14.84
66473;BMP280;70264;48.802;9.224;2023-08-30T04:58:14;98354.44;;;14.82
66473;BMP280;70264;48.802;9.224;2023-08-30T05:00:42;98356.50;;;14.92
66473;BMP280;70264;48.802;9.224;2023-08-30T05:03:07;98351.00;;;14.88
66473;BMP280;70264;48.802;9.224;2023-08-30T05:05:33;98347.31;;;14.84
66473;BMP280;70264;48.802;9.224;2023-08-30T05:07:59;98359.66;;;14.94
66473;BMP280;70264;48.802;9.224;2023-08-30T05:10:24;98354.69;;;14.92
66473;BMP280;70264;48.802;9.224;2023-08-30T05:12:55;98360.00;;;14.97
66473;BMP280;70264;48.802;9.224;2023-08-30T05:15:22;98355.63;;;14.98
66473;BMP280;70264;48.802;9.224;2023-08-30T05:17:50;98358.16;;;15.04
66473;BMP280;70264;48.802;9.224;2023-08-30T05:20:18;98356.44;;;14.98
66473;BMP280;70264;48.802;9.224;2023-08-30T05:22:43;98357.56;;;15.02
66473;BMP280;70264;48.802;9.224;2023-08-30T05:25:09;98357.41;;;15.15
66473;BMP280;70264;48.802;9.224;2023-08-30T05:27:34;98353.13;;;15.09
66473;BMP280;70264;48.802;9.224;2023-08-30T05:29:59;98357.84;;;15.12
66473;BMP280;70264;48.802;9.224;2023-08-30T05:32:25;98355.22;;;15.19
66473;BMP280;70264;48.802;9.224;2023-08-30T05:34:50;98365.13;;;15.15
66473;BMP280;70264;48.802;9.224;2023-08-30T05:37:15;98359.56;;;15.19
66473;BMP280;70264;48.802;9.224;2023-08-30T05:39:43;98359.91;;;15.22
66473;BMP280;70264;48.802;9.224;2023-08-30T05:42:11;98351.06;;;15.18
66473;BMP280;70264;48.802;9.224;2023-08-30T05:44:36;98356.50;;;15.28
66473;BMP280;70264;48.802;9.224;2023-08-30T05:47:01;98356.38;;;15.35
66473;BMP280;70264;48.802;9.224;2023-08-30T05:49:26;98357.53;;;15.39
66473;BMP280;70264;48.802;9.224;2023-08-30T05:51:54;98349.59;;;15.40
66473;BMP280;70264;48.802;9.224;2023-08-30T05:54:19;98356.94;;;15.37
66473;BMP280;70264;48.802;9.224;2023-08-30T05:56:47;98349.84;;;15.50
66473;BMP280;70264;48.802;9.224;2023-08-30T05:59:13;98357.94;;;15.54
66473;BMP280;70264;48.802;9.224;2023-08-30T06:01:41;98351.72;;;15.43
66473;BMP280;70264;48.802;9.224;2023-08-30T06:04:08;98358.50;;;15.56
66473;BMP280;70264;48.802;9.224;2023-08-30T06:06:34;98360.94;;;15.51
66473;BMP280;70264;48.802;9.224;2023-08-30T06:08:59;98357.78;;;15.49
66473;BMP280;70264;48.802;9.224;2023-08-30T06:11:25;98355.78;;;15.51
66473;BMP280;70264;48.802;9.224;2023-08-30T06:13:50;98349.19;;;15.55
66473;BMP280;70264;48.802;9.224;2023-08-30T06:16:15;98357.53;;;15.69
66473;BMP280;70264;48.802;9.224;2023-08-30T06:18:41;98360.88;;;15.81
66473;BMP280;70264;48.802;9.224;2023-08-30T06:21:06;98364.75;;;15.90
66473;BMP280;70264;48.802;9.224;2023-08-30T06:23:36;98362.94;;;15.79
66473;BMP280;70264;48.802;9.224;2023-08-30T06:26:02;98364.84;;;15.83
66473;BMP280;70264;48.802;9.224;2023-08-30T06:28:28;98358.59;;;16.02
66473;BMP280;70264;48.802;9.224;2023-08-30T06:30:53;98359.13;;;15.93
66473;BMP280;70264;48.802;9.224;2023-08-30T06:33:22;98354.31;;;15.96
66473;BMP280;70264;48.802;9.224;2023-08-30T06:35:50;98360.50;;;16.07
66473;BMP280;70264;48.802;9.224;2023-08-30T06:38:18;98365.91;;;16.17
66473;BMP280;70264;48.802;9.224;2023-08-30T06:40:44;98363.84;;;16.08
66473;BMP280;70264;48.802;9.224;2023-08-30T06:43:12;98363.97;;;16.13
66473;BMP280;70264;48.802;9.224;2023-08-30T06:45:41;98365.25;;;16.22
66473;BMP280;70264;48.802;9.224;2023-08-30T06:48:09;98361.97;;;16.15
66473;BMP280;70264;48.802;9.224;2023-08-30T06:50:35;98364.34;;;16.28
66473;BMP280;70264;48.802;9.224;2023-08-30T06:53:03;98365.25;;;16.33
66473;BMP280;70264;48.802;9.224;2023-08-30T06:55:30;98360.41;;;16.37
66473;BMP280;70264;48.802;9.224;2023-08-30T06:58:02;98356.28;;;16.47
66473;BMP280;70264;48.802;9.224;2023-08-30T07:00:30;98363.81;;;16.49
66473;BMP280;70264;48.802;9.224;2023-08-30T07:02:55;98354.47;;;16.36
66473;BMP280;70264;48.802;9.224;2023-08-30T07:05:22;98357.50;;;16.33
66473;BMP280;70264;48.802;9.224;2023-08-30T07:07:50;98354.22;;;16.61
66473;BMP280;70264;48.802;9.224;2023-08-30T07:10:15;98350.50;;;16.57
66473;BMP280;70264;48.802;9.224;2023-08-30T07:12:41;98354.91;;;16.45
66473;BMP280;70264;48.802;9.224;2023-08-30T07:18:07;98357.50;;;16.45
66473;BMP280;70264;48.802;9.224;2023-08-30T07:20:36;98357.16;;;16.53
66473;BMP280;70264;48.802;9.224;2023-08-30T07:23:03;98359.06;;;16.58
66473;BMP280;70264;48.802;9.224;2023-08-30T07:25:30;98358.84;;;16.59
66473;BMP280;70264;48.802;9.224;2023-08-30T07:27:58;98354.00;;;16.63
66473;BMP280;70264;48.802;9.224;2023-08-30T07:30:28;98352.00;;;16.65
66473;BMP280;70264;48.802;9.224;2023-08-30T07:32:54;98354.09;;;16.68
66473;BMP280;70264;48.802;9.224;2023-08-30T07:35:19;98351.38;;;16.74
66473;BMP280;70264;48.802;9.224;2023-08-30T07:37:47;98350.69;;;16.90
66473;BMP280;70264;48.802;9.224;2023-08-30T07:40:12;98353.03;;;16.80
66473;BMP280;70264;48.802;9.224;2023-08-30T07:42:37;98347.34;;;16.78
66473;BMP280;70264;48.802;9.224;2023-08-30T07:45:03;98349.72;;;16.68
66473;BMP280;70264;48.802;9.224;2023-08-30T07:47:31;98356.38;;;16.64
66473;BMP280;70264;48.802;9.224;2023-08-30T07:49:59;98361.84;;;16.68
66473;BMP280;70264;48.802;9.224;2023-08-30T07:52:24;98357.25;;;16.70
66473;BMP280;70264;48.802;9.224;2023-08-30T07:54:50;98358.31;;;16.97
66473;BMP280;70264;48.802;9.224;2023-08-30T07:57:15;98358.38;;;17.02
66473;BMP280;70264;48.802;9.224;2023-08-30T07:59:40;98358.47;;;17.19
66473;BMP280;70264;48.802;9.224;2023-08-30T08:02:06;98357.16;;;17.05
66473;BMP280;70264;48.802;9.224;2023-08-30T08:04:34;98343.56;;;16.97
66473;BMP280;70264;48.802;9.224;2023-08-30T08:07:01;98344.03;;;17.23
66473;BMP280;70264;48.802;9.224;2023-08-30T08:09:30;98349.78;;;17.25
66473;BMP280;70264;48.802;9.224;2023-08-30T08:11:55;98351.09;;;17.39
66473;BMP280;70264;48.802;9.224;2023-08-30T08:14:22;98359.00;;;17.49
66473;BMP280;70264;48.802;9.224;2023-08-30T08:16:50;98351.66;;;17.58
66473;BMP280;70264;48.802;9.224;2023-08-30T08:19:18;98351.25;;;17.66
66473;BMP280;70264;48.802;9.224;2023-08-30T08:21:43;98347.72;;;17.55
66473;BMP280;70264;48.802;9.224;2023-08-30T08:24:10;98350.72;;;17.64
66473;BMP280;70264;48.802;9.224;2023-08-30T08:26:36;98350.47;;;17.82
66473;BMP280;70264;48.802;9.224;2023-08-30T08:29:01;98346.25;;;17.92
66473;BMP280;70264;48.802;9.224;2023-08-30T08:31:26;98341.94;;;17.81
66473;BMP280;70264;48.802;9.224;2023-08-30T08:34:08;98348.84;;;17.59
66473;BMP280;70264;48.802;9.224;2023-08-30T08:36:35;98350.47;;;17.99
66473;BMP280;70264;48.802;9.224;2023-08-30T08:39:03;98346.31;;;17.81
66473;BMP280;70264;48.802;9.224;2023-08-30T08:41:37;98357.59;;;17.91
66473;BMP280;70264;48.802;9.224;2023-08-30T08:44:07;98351.97;;;17.78
66473;BMP280;70264;48.802;9.224;2023-08-30T08:46:34;98352.03;;;18.00
66473;BMP280;70264;48.802;9.224;2023-08-30T08:49:02;98346.78;;;17.95
66473;BMP280;70264;48.802;9.224;2023-08-30T08:51:33;98348.47;;;17.84
66473;BMP280;70264;48.802;9.224;2023-08-30T08:54:01;98348.47;;;17.84
66473;BMP280;70264;48.802;9.224;2023-08-30T08:56:27;98339.38;;;18.36
66473;BMP280;70264;48.802;9.224;2023-08-30T08:58:55;98335.59;;;18.27
66473;BMP280;70264;48.802;9.224;2023-08-30T09:01:21;98336.13;;;18.68
66473;BMP280;70264;48.802;9.224;2023-08-30T09:03:47;98343.56;;;18.59
66473;BMP280;70264;48.802;9.224;2023-08-30T09:06:13;98347.00;;;18.70
66473;BMP280;70264;48.802;9.224;2023-08-30T09:08:42;98353.75;;;18.49
66473;BMP280;70264;48.802;9.224;2023-08-30T09:11:10;98343.81;;;18.63
66473;BMP280;70264;48.802;9.224;2023-08-30T09:13:36;98342.31;;;18.67
66473;BMP280;70264;48.802;9.224;2023-08-30T09:16:01;98342.84;;;18.47
66473;BMP280;70264;48.802;9.224;2023-08-30T09:18:28;98339.03;;;18.50
66473;BMP280;70264;48.802;9.224;2023-08-30T09:21:05;98345.91;;;18.66
66473;BMP280;70264;48.802;9.224;2023-08-30T09:23:30;98348.16;;;19.01
66473;BMP280;70264;48.802;9.224;2023-08-30T09:25:58;98350.56;;;19.12
66473;BMP280;70264;48.802;9.224;2023-08-30T09:28:23;98343.63;;;19.45
66473;BMP280;70264;48.802;9.224;2023-08-30T09:30:53;98354.13;;;19.33
66473;BMP280;70264;48.802;9.224;2023-08-30T09:33:22;98342.13;;;19.22
66473;BMP280;70264;48.802;9.224;2023-08-30T09:35:50;98336.31;;;19.10
66473;BMP280;70264;48.802;9.224;2023-08-30T09:38:16;98342.03;;;19.12
66473;BMP280;70264;48.802;9.224;2023-08-30T09:40:43;98333.63;;;19.26
66473;BMP280;70264;48.802;9.224;2023-08-30T09:43:09;98332.28;;;19.24
66473;BMP280;70264;48.802;9.224;2023-08-30T09:45:34;98335.06;;;19.44
66473;BMP280;70264;48.802;9.224;2023-08-30T09:48:01;98324.34;;;19.67
66473;BMP280;70264;48.802;9.224;2023-08-30T09:50:28;98334.06;;;19.50
66473;BMP280;70264;48.802;9.224;2023-08-30T09:52:56;98325.94;;;19.73
66473;BMP280;70264;48.802;9.224;2023-08-30T09:55:26;98325.13;;;20.10
66473;BMP280;70264;48.802;9.224;2023-08-30T09:57:53;98327.47;;;20.11
66473;BMP280;70264;48.802;9.224;2023-08-30T10:00:18;98328.97;;;19.97
66473;BMP280;70264;48.802;9.224;2023-08-30T10:02:44;98324.06;;;20.11
66473;BMP280;70264;48.802;9.224;2023-08-30T10:05:10;98319.78;;;20.31
66473;BMP280;70264;48.802;9.224;2023-08-30T10:07:41;98323.75;;;20.54
66473;BMP280;70264;48.802;9.224;2023-08-30T10:10:09;98321.44;;;20.63
66473;BMP280;70264;48.802;9.224;2023-08-30T10:12:35;98307.44;;;20.69
66473;BMP280;70264;48.802;9.224;2023-08-30T10:15:01;98313.88;;;20.51
66473;BMP280;70264;48.802;9.224;2023-08-30T10:17:28;98309.50;;;20.82
66473;BMP280;70264;48.802;9.224;2023-08-30T10:20:03;98297.31;;;20.88
66473;BMP280;70264;48.802;9.224;2023-08-30T10:22:32;98290.84;;;20.95
66473;BMP280;70264;48.802;9.224;2023-08-30T10:25:08;98290.84;;;20.95
66473;BMP280;70264;48.802;9.224;2023-08-30T10:27:42;98281.22;;;21.41
66473;BMP280;70264;48.802;9.224;2023-08-30T10:30:09;98280.16;;;21.57
66473;BMP280;70264;48.802;9.224;2023-08-30T10:32:42;98275.50;;;21.04
66473;BMP280;70264;48.802;9.224;2023-08-30T10:35:14;98267.41;;;21.46
66473;BMP280;70264;48.802;9.224;2023-08-30T10:37:53;98263.53;;;21.33
66473;BMP280;70264;48.802;9.224;2023-08-30T10:40:18;98275.44;;;21.59
66473;BMP280;70264;48.802;9.224;2023-08-30T10:43:00;98266.63;;;21.50
66473;BMP280;70264;48.802;9.224;2023-08-30T10:45:30;98260.72;;;22.04
66473;BMP280;70264;48.802;9.224;2023-08-30T10:47:59;98261.91;;;21.67
66473;BMP280;70264;48.802;9.224;2023-08-30T10:50:30;98255.09;;;21.81
66473;BMP280;70264;48.802;9.224;2023-08-30T10:52:58;98255.91;;;22.31
66473;BMP280;70264;48.802;9.224;2023-08-30T10:55:27;98261.03;;;22.41
66473;BMP280;70264;48.802;9.224;2023-08-30T10:58:02;98261.22;;;22.88
66473;BMP280;70264;48.802;9.224;2023-08-30T11:00:31;98253.41;;;22.88
66473;BMP280;70264;48.802;9.224;2023-08-30T11:03:00;98251.91;;;22.44
66473;BMP280;70264;48.802;9.224;2023-08-30T11:05:31;98244.59;;;22.46
66473;BMP280;70264;48.802;9.224;2023-08-30T11:07:59;98246.97;;;22.42
66473;BMP280;70264;48.802;9.224;2023-08-30T11:10:24;98248.78;;;22.42
66473;BMP280;70264;48.802;9.224;2023-08-30T11:12:50;98250.34;;;22.48
66473;BMP280;70264;48.802;9.224;2023-08-30T11:15:18;98245.41;;;22.80
66473;BMP280;70264;48.802;9.224;2023-08-30T11:17:44;98250.84;;;23.12
66473;BMP280;70264;48.802;9.224;2023-08-30T11:20:10;98242.91;;;22.99
66473;BMP280;70264;48.802;9.224;2023-08-30T11:22:42;98235.47;;;23.11
66473;BMP280;70264;48.802;9.224;2023-08-30T11:25:09;98233.53;;;23.26
66473;BMP280;70264;48.802;9.224;2023-08-30T11:27:37;98223.84;;;23.27
66473;BMP280;70264;48.802;9.224;2023-08-30T11:30:08;98224.72;;;23.65
66473;BMP280;70264;48.802;9.224;2023-08-30T11:32:40;98224.75;;;23.83
66473;BMP280;70264;48.802;9.224;2023-08-30T11:35:11;98224.63;;;23.93
66473;BMP280;70264;48.802;9.224;2023-08-30T11:37:40;98230.97;;;23.45
66473;BMP280;70264;48.802;9.224;2023-08-30T11:40:05;98230.19;;;22.92
66473;BMP280;70264;48.802;9.224;2023-08-30T11:42:33;98233.94;;;22.42
66473;BMP280;70264;48.802;9.224;2023-08-30T11:44:59;98230.56;;;21.93
66473;BMP280;70264;48.802;9.224;2023-08-30T11:47:25;98234.63;;;21.45
66473;BMP280;70264;48.802;9.224;2023-08-30T11:49:55;98257.56;;;20.92
66473;BMP280;70264;48.802;9.224;2023-08-30T11:52:24;98256.91;;;20.29
66473;BMP280;70264;48.802;9.224;2023-08-30T11:54:53;98247.88;;;19.75
66473;BMP280;70264;48.802;9.224;2023-08-30T11:57:19;98247.88;;;19.75
66473;BMP280;70264;48.802;9.224;2023-08-30T11:59:44;98266.56;;;19.03
66473;BMP280;70264;48.802;9.224;2023-08-30T12:02:13;98267.56;;;18.75
66473;BMP280;70264;48.802;9.224;2023-08-30T12:04:45;98268.34;;;18.76
66473;BMP280;70264;48.802;9.224;2023-08-30T12:07:21;98261.38;;;18.76
66473;BMP280;70264;48.802;9.224;2023-08-30T12:09:48;98267.84;;;18.52
66473;BMP280;70264;48.802;9.224;2023-08-30T12:12:13;98272.28;;;18.13
66473;BMP280;70264;48.802;9.224;2023-08-30T12:14:41;98276.44;;;18.14
66473;BMP280;70264;48.802;9.224;2023-08-30T12:17:10;98282.97;;;18.00
66473;BMP280;70264;48.802;9.224;2023-08-30T12:19:38;98276.22;;;17.99
66473;BMP280;70264;48.802;9.224;2023-08-30T12:22:06;98272.41;;;17.85
66473;BMP280;70264;48.802;9.224;2023-08-30T12:24:46;98276.50;;;17.81
66473;BMP280;70264;48.802;9.224;2023-08-30T12:27:14;98283.16;;;17.94
66473;BMP280;70264;48.802;9.224;2023-08-30T12:29:40;98275.09;;;17.90
66473;BMP280;70264;48.802;9.224;2023-08-30T12:32:06;98268.38;;;18.11
66473;BMP280;70264;48.802;9.224;2023-08-30T12:34:31;98258.44;;;18.24
66473;BMP280;70264;48.802;9.224;2023-08-30T12:37:01;98257.31;;;18.37
66473;BMP280;70264;48.802;9.224;2023-08-30T12:39:28;98248.16;;;18.51
66473;BMP280;70264;48.802;9.224;2023-08-30T12:41:55;98260.03;;;18.74
66473;BMP280;70264;48.802;9.224;2023-08-30T12:44:21;98247.41;;;18.77
66473;BMP280;70264;48.802;9.224;2023-08-30T12:46:46;98237.91;;;19.20
66473;BMP280;70264;48.802;9.224;2023-08-30T12:49:14;98238.41;;;19.59
66473;BMP280;70264;48.802;9.224;2023-08-30T12:51:39;98246.81;;;19.71
66473;BMP280;70264;48.802;9.224;2023-08-30T12:54:04;98242.25;;;19.46
66473;BMP280;70264;48.802;9.224;2023-08-30T12:56:35;98239.69;;;20.03
66473;BMP280;70264;48.802;9.224;2023-08-30T12:59:00;98245.25;;;20.22
66473;BMP280;70264;48.802;9.224;2023-08-30T13:01:28;98242.94;;;20.36
66473;BMP280;70264;48.802;9.224;2023-08-30T13:03:53;98247.13;;;20.57
66473;BMP280;70264;48.802;9.224;2023-08-30T13:06:18;98240.09;;;20.57
66473;BMP280;70264;48.802;9.224;2023-08-30T13:08:46;98244.81;;;20.70
66473;BMP280;70264;48.802;9.224;2023-08-30T13:11:15;98237.28;;;21.09
66473;BMP280;70264;48.802;9.224;2023-08-30T13:13:41;98235.97;;;21.37
66473;BMP280;70264;48.802;9.224;2023-08-30T13:16:06;98233.38;;;20.76
66473;BMP280;70264;48.802;9.224;2023-08-30T13:18:34;98227.13;;;21.33
66473;BMP280;70264;48.802;9.224;2023-08-30T13:20:59;98230.41;;;21.74
66473;BMP280;70264;48.802;9.224;2023-08-30T13:23:29;98221.19;;;21.92
66473;BMP280;70264;48.802;9.224;2023-08-30T13:25:54;98220.41;;;21.91
66473;BMP280;70264;48.802;9.224;2023-08-30T13:28:22;98220.63;;;22.10
66473;BMP280;70264;48.802;9.224;2023-08-30T13:30:47;98217.00;;;22.06
66473;BMP280;70264;48.802;9.224;2023-08-30T13:33:15;98222.22;;;21.96
66473;BMP280;70264;48.802;9.224;2023-08-30T13:35:40;98222.31;;;22.29
66473;BMP280;70264;48.802;9.224;2023-08-30T13:38:08;98222.88;;;22.21
66473;BMP280;70264;48.802;9.224;2023-08-30T13:40:35;98217.41;;;22.23
66473;BMP280;70264;48.802;9.224;2023-08-30T13:43:02;98220.72;;;22.67
66473;BMP280;70264;48.802;9.224;2023-08-30T13:45:28;98221.19;;;22.41
66473;BMP280;70264;48.802;9.224;2023-08-30T13:47:58;98216.28;;;23.02
66473;BMP280;70264;48.802;9.224;2023-08-30T13:50:27;98219.53;;;23.12
66473;BMP280;70264;48.802;9.224;2023-08-30T13:53:00;98216.28;;;23.49
66473;BMP280;70264;48.802;9.224;2023-08-30T13:55:26;98204.28;;;23.90
66473;BMP280;70264;48.802;9.224;2023-08-30T13:57:51;98210.88;;;24.39
66473;BMP280;70264;48.802;9.224;2023-08-30T14:00:17;98216.38;;;25.16
66473;BMP280;70264;48.802;9.224;2023-08-30T14:02:42;98214.72;;;24.92
66473;BMP280;70264;48.802;9.224;2023-08-30T14:05:08;98203.56;;;25.28
66473;BMP280;70264;48.802;9.224;2023-08-30T14:07:35;98207.69;;;24.74
66473;BMP280;70264;48.802;9.224;2023-08-30T14:10:01;98211.41;;;24.41
66473;BMP280;70264;48.802;9.224;2023-08-30T14:12:26;98211.13;;;23.86
66473;BMP280;70264;48.802;9.224;2023-08-30T14:14:54;98213.91;;;23.29
66473;BMP280;70264;48.802;9.224;2023-08-30T14:17:19;98205.03;;;23.06